sensor_id;sensor_type;location;lat;lon;timestamp;pressure;altitude;pressure_sealevel;temperature;humidity
25944;BME280;13742;49.306;8.636;2022-07-17T00:00:09;101300.13;;;20.44;44.70
25944;BME280;13742;49.306;8.636;2022-07-17T00:01:09;101301.55;;;20.40;44.58
25944;BME280;13742;49.306;8.636;2022-07-17T00:02:09;101299.03;;;20.37;44.82
25944;BME280;13742;49.306;8.636;2022-07-17T00:03:10;101300.16;;;20.35;45.01
25944;BME280;13742;49.306;8.636;2022-07-17T00:04:09;101302.73;;;20.34;44.81
25944;BME280;13742;49.306;8.636;2022-07-17T00:05:09;101303.52;;;20.33;45.10
25944;BME280;13742;49.306;8.636;2022-07-17T00:06:09;101300.98;;;20.33;44.92
25944;BME280;13742;49.306;8.636;2022-07-17T00:07:09;101300.39;;;20.33;44.60
25944;BME280;13742;49.306;8.636;2022-07-17T00:08:09;101302.97;;;20.31;45.35
25944;BME280;13742;49.306;8.636;2022-07-17T00:09:09;101298.98;;;20.31;45.12
25944;BME280;13742;49.306;8.636;2022-07-17T00:10:09;101300.38;;;20.29;44.88
25944;BME280;13742;49.306;8.636;2022-07-17T00:11:09;101302.72;;;20.29;45.01
25944;BME280;13742;49.306;8.636;2022-07-17T00:12:09;101299.81;;;20.28;44.80
25944;BME280;13742;49.306;8.636;2022-07-17T00:13:09;101296.41;;;20.26;45.06
25944;BME280;13742;49.306;8.636;2022-07-17T00:14:09;101299.32;;;20.22;45.39
25944;BME280;13742;49.306;8.636;2022-07-17T00:15:09;101298.83;;;20.23;44.97
25944;BME280;13742;49.306;8.636;2022-07-17T00:16:09;101299.66;;;20.21;45.39
25944;BME280;13742;49.306;8.636;2022-07-17T00:17:09;101298.33;;;20.17;45.81
25944;BME280;13742;49.306;8.636;2022-07-17T00:18:09;101296.31;;;20.17;45.36
25944;BME280;13742;49.306;8.636;2022-07-17T00:19:09;101296.88;;;20.13;45.48
25944;BME280;13742;49.306;8.636;2022-07-17T00:20:09;101297.71;;;20.13;45.46
25944;BME280;13742;49.306;8.636;2022-07-17T00:21:09;101298.05;;;20.10;45.75
25944;BME280;13742;49.306;8.636;2022-07-17T00:22:09;101297.09;;;20.08;45.45
25944;BME280;13742;49.306;8.636;2022-07-17T00:23:09;101294.75;;;20.08;45.67
25944;BME280;13742;49.306;8.636;2022-07-17T00:24:10;101292.88;;;20.04;45.76
25944;BME280;13742;49.306;8.636;2022-07-17T00:25:10;101297.66;;;20.04;45.76
25944;BME280;13742;49.306;8.636;2022-07-17T00:26:09;101295.69;;;20.04;45.60
25944;BME280;13742;49.306;8.636;2022-07-17T00:27:09;101297.14;;;20.00;46.13
25944;BME280;13742;49.306;8.636;2022-07-17T00:28:09;101297.94;;;19.93;46.59
25944;BME280;13742;49.306;8.636;2022-07-17T00:29:09;101297.49;;;19.94;45.86
25944;BME280;13742;49.306;8.636;2022-07-17T00:30:09;101299.06;;;19.91;46.61
25944;BME280;13742;49.306;8.636;2022-07-17T00:31:09;101299.90;;;19.88;46.44
25944;BME280;13742;49.306;8.636;2022-07-17T00:32:09;101300.63;;;19.87;46.69
25944;BME280;13742;49.306;8.636;2022-07-17T00:33:09;101301.17;;;19.86;46.67
25944;BME280;13742;49.306;8.636;2022-07-17T00:34:09;101306.31;;;19.87;46.49
25944;BME280;13742;49.306;8.636;2022-07-17T00:35:09;101301.78;;;19.84;46.81
25944;BME280;13742;49.306;8.636;2022-07-17T00:36:09;101304.69;;;19.80;46.92
25944;BME280;13742;49.306;8.636;2022-07-17T00:37:09;101302.97;;;19.81;46.16
25944;BME280;13742;49.306;8.636;2022-07-17T00:38:10;101300.66;;;19.82;46.67
25944;BME280;13742;49.306;8.636;2022-07-17T00:39:09;101307.03;;;19.82;46.33
25944;BME280;13742;49.306;8.636;2022-07-17T00:40:10;101300.75;;;19.68;47.66
25944;BME280;13742;49.306;8.636;2022-07-17T00:41:09;101306.80;;;19.73;46.97
25944;BME280;13742;49.306;8.636;2022-07-17T00:42:12;101297.24;;;19.73;47.24
25944;BME280;13742;49.306;8.636;2022-07-17T00:43:09;101299.36;;;19.66;48.15
25944;BME280;13742;49.306;8.636;2022-07-17T00:44:09;101299.24;;;19.68;48.01
25944;BME280;13742;49.306;8.636;2022-07-17T00:45:09;101300.92;;;19.67;48.56
25944;BME280;13742;49.306;8.636;2022-07-17T00:46:09;101304.94;;;19.67;48.42
25944;BME280;13742;49.306;8.636;2022-07-17T00:47:11;101300.58;;;19.65;48.19
25944;BME280;13742;49.306;8.636;2022-07-17T00:48:09;101302.77;;;19.64;47.96
25944;BME280;13742;49.306;8.636;2022-07-17T00:49:09;101303.30;;;19.54;48.76
25944;BME280;13742;49.306;8.636;2022-07-17T00:50:09;101296.42;;;19.57;48.55
25944;BME280;13742;49.306;8.636;2022-07-17T00:51:09;101301.75;;;19.59;48.44
25944;BME280;13742;49.306;8.636;2022-07-17T00:52:09;101301.13;;;19.60;48.78
25944;BME280;13742;49.306;8.636;2022-07-17T00:53:10;101304.44;;;19.61;48.83
25944;BME280;13742;49.306;8.636;2022-07-17T00:54:09;101302.67;;;19.55;49.16
25944;BME280;13742;49.306;8.636;2022-07-17T00:55:09;101302.70;;;19.57;48.63
25944;BME280;13742;49.306;8.636;2022-07-17T00:56:09;101297.16;;;19.58;48.26
25944;BME280;13742;49.306;8.636;2022-07-17T00:57:10;101295.70;;;19.58;48.48
25944;BME280;13742;49.306;8.636;2022-07-17T00:58:09;101298.95;;;19.59;49.11
25944;BME280;13742;49.306;8.636;2022-07-17T00:59:09;101295.70;;;19.58;48.95
25944;BME280;13742;49.306;8.636;2022-07-17T01:00:10;101303.24;;;19.59;48.89
25944;BME280;13742;49.306;8.636;2022-07-17T01:01:09;101295.49;;;19.57;48.76
25944;BME280;13742;49.306;8.636;2022-07-17T01:02:10;101300.53;;;19.48;49.14
25944;BME280;13742;49.306;8.636;2022-07-17T01:03:09;101301.22;;;19.44;49.32
25944;BME280;13742;49.306;8.636;2022-07-17T01:04:09;101298.34;;;19.40;49.56
25944;BME280;13742;49.306;8.636;2022-07-17T01:05:09;101297.05;;;19.38;49.43
25944;BME280;13742;49.306;8.636;2022-07-17T01:06:09;101296.20;;;19.34;49.28
25944;BME280;13742;49.306;8.636;2022-07-17T01:07:10;101292.48;;;19.22;49.68
25944;BME280;13742;49.306;8.636;2022-07-17T01:08:09;101293.38;;;19.24;49.03
25944;BME280;13742;49.306;8.636;2022-07-17T01:09:10;101295.91;;;19.27;48.42
25944;BME280;13742;49.306;8.636;2022-07-17T01:10:09;101294.91;;;19.28;48.25
25944;BME280;13742;49.306;8.636;2022-07-17T01:11:09;101291.30;;;19.18;49.52
25944;BME280;13742;49.306;8.636;2022-07-17T01:12:09;101296.09;;;19.19;48.90
25944;BME280;13742;49.306;8.636;2022-07-17T01:13:09;101290.59;;;19.05;49.35
25944;BME280;13742;49.306;8.636;2022-07-17T01:14:09;101291.73;;;19.00;49.04
25944;BME280;13742;49.306;8.636;2022-07-17T01:15:09;101295.03;;;19.00;49.14
25944;BME280;13742;49.306;8.636;2022-07-17T01:16:09;101293.30;;;19.01;49.16
25944;BME280;13742;49.306;8.636;2022-07-17T01:17:10;101298.39;;;18.92;49.46
25944;BME280;13742;49.306;8.636;2022-07-17T01:18:10;101296.05;;;18.93;49.06
25944;BME280;13742;49.306;8.636;2022-07-17T01:19:10;101297.51;;;18.93;48.52
25944;BME280;13742;49.306;8.636;2022-07-17T01:20:09;101291.76;;;18.93;48.46
25944;BME280;13742;49.306;8.636;2022-07-17T01:21:09;101292.32;;;18.94;48.78
25944;BME280;13742;49.306;8.636;2022-07-17T01:22:09;101292.98;;;18.94;48.42
25944;BME280;13742;49.306;8.636;2022-07-17T01:23:09;101293.33;;;18.93;48.08
25944;BME280;13742;49.306;8.636;2022-07-17T01:24:10;101289.42;;;18.93;48.44
25944;BME280;13742;49.306;8.636;2022-07-17T01:25:10;101293.03;;;18.89;48.55
25944;BME280;13742;49.306;8.636;2022-07-17T01:26:09;101294.17;;;18.84;48.80
25944;BME280;13742;49.306;8.636;2022-07-17T01:27:09;101291.99;;;18.83;48.56
25944;BME280;13742;49.306;8.636;2022-07-17T01:28:09;101292.42;;;18.80;49.21
25944;BME280;13742;49.306;8.636;2022-07-17T01:29:12;101295.80;;;18.75;49.36
25944;BME280;13742;49.306;8.636;2022-07-17T01:30:09;101293.66;;;18.73;49.27
25944;BME280;13742;49.306;8.636;2022-07-17T01:31:09;101293.06;;;18.67;49.43
25944;BME280;13742;49.306;8.636;2022-07-17T01:32:09;101295.56;;;18.61;49.86
25944;BME280;13742;49.306;8.636;2022-07-17T01:33:11;101293.41;;;18.59;49.41
25944;BME280;13742;49.306;8.636;2022-07-17T01:34:09;101295.17;;;18.54;50.24
25944;BME280;13742;49.306;8.636;2022-07-17T01:35:10;101295.34;;;18.54;49.96
25944;BME280;13742;49.306;8.636;2022-07-17T01:36:09;101294.20;;;18.49;49.96
25944;BME280;13742;49.306;8.636;2022-07-17T01:37:09;101294.42;;;18.50;50.13
25944;BME280;13742;49.306;8.636;2022-07-17T01:38:09;101292.84;;;18.50;50.06
25944;BME280;13742;49.306;8.636;2022-07-17T01:39:09;101293.64;;;18.44;50.24
25944;BME280;13742;49.306;8.636;2022-07-17T01:40:10;101292.54;;;18.35;50.48
25944;BME280;13742;49.306;8.636;2022-07-17T01:41:09;101296.38;;;18.35;49.94
25944;BME280;13742;49.306;8.636;2022-07-17T01:42:09;101294.47;;;18.34;50.05
25944;BME280;13742;49.306;8.636;2022-07-17T01:43:09;101294.78;;;18.31;50.15
25944;BME280;13742;49.306;8.636;2022-07-17T01:44:09;101296.11;;;18.30;50.20
25944;BME280;13742;49.306;8.636;2022-07-17T01:45:09;101300.55;;;18.32;49.88
25944;BME280;13742;49.306;8.636;2022-07-17T01:46:09;101298.60;;;18.33;50.48
25944;BME280;13742;49.306;8.636;2022-07-17T01:47:09;101299.69;;;18.20;51.01
25944;BME280;13742;49.306;8.636;2022-07-17T01:48:09;101307.05;;;18.15;51.17
25944;BME280;13742;49.306;8.636;2022-07-17T01:49:09;101304.34;;;18.09;51.38
25944;BME280;13742;49.306;8.636;2022-07-17T01:50:09;101303.63;;;18.06;51.68
25944;BME280;13742;49.306;8.636;2022-07-17T01:51:09;101304.02;;;18.13;51.13
25944;BME280;13742;49.306;8.636;2022-07-17T01:52:09;101302.06;;;18.10;51.11
25944;BME280;13742;49.306;8.636;2022-07-17T01:53:09;101301.03;;;17.95;51.90
25944;BME280;13742;49.306;8.636;2022-07-17T01:54:09;101306.33;;;17.97;52.00
25944;BME280;13742;49.306;8.636;2022-07-17T01:55:10;101307.50;;;18.02;51.80
25944;BME280;13742;49.306;8.636;2022-07-17T01:56:09;101300.19;;;18.01;51.61
25944;BME280;13742;49.306;8.636;2022-07-17T01:57:09;101303.19;;;18.01;51.45
25944;BME280;13742;49.306;8.636;2022-07-17T01:58:09;101304.89;;;18.03;50.83
25944;BME280;13742;49.306;8.636;2022-07-17T01:59:09;101302.59;;;18.01;52.07
25944;BME280;13742;49.306;8.636;2022-07-17T02:00:10;101305.16;;;18.02;51.28
25944;BME280;13742;49.306;8.636;2022-07-17T02:01:09;101303.88;;;18.03;51.40
25944;BME280;13742;49.306;8.636;2022-07-17T02:02:09;101305.12;;;17.99;52.25
25944;BME280;13742;49.306;8.636;2022-07-17T02:03:09;101307.61;;;18.01;51.44
25944;BME280;13742;49.306;8.636;2022-07-17T02:04:09;101308.00;;;18.03;51.09
25944;BME280;13742;49.306;8.636;2022-07-17T02:05:09;101309.19;;;18.00;51.96
25944;BME280;13742;49.306;8.636;2022-07-17T02:06:09;101311.08;;;17.98;52.18
25944;BME280;13742;49.306;8.636;2022-07-17T02:07:09;101308.48;;;18.00;51.42
25944;BME280;13742;49.306;8.636;2022-07-17T02:08:09;101310.98;;;18.00;51.21
25944;BME280;13742;49.306;8.636;2022-07-17T02:09:09;101308.06;;;17.98;51.85
25944;BME280;13742;49.306;8.636;2022-07-17T02:10:09;101303.92;;;17.76;52.46
25944;BME280;13742;49.306;8.636;2022-07-17T02:11:09;101305.85;;;17.80;52.41
25944;BME280;13742;49.306;8.636;2022-07-17T02:12:09;101304.20;;;17.83;52.46
25944;BME280;13742;49.306;8.636;2022-07-17T02:13:09;101304.78;;;17.86;52.51
25944;BME280;13742;49.306;8.636;2022-07-17T02:14:09;101305.08;;;17.88;52.34
25944;BME280;13742;49.306;8.636;2022-07-17T02:15:09;101300.27;;;17.87;52.08
25944;BME280;13742;49.306;8.636;2022-07-17T02:16:09;101299.16;;;17.85;51.73
25944;BME280;13742;49.306;8.636;2022-07-17T02:17:09;101292.09;;;17.86;51.96
25944;BME280;13742;49.306;8.636;2022-07-17T02:18:09;101300.52;;;17.88;51.78
25944;BME280;13742;49.306;8.636;2022-07-17T02:19:09;101290.98;;;17.80;52.63
25944;BME280;13742;49.306;8.636;2022-07-17T02:20:10;101291.07;;;17.67;53.03
25944;BME280;13742;49.306;8.636;2022-07-17T02:21:09;101287.16;;;17.71;52.78
25944;BME280;13742;49.306;8.636;2022-07-17T02:22:09;101287.95;;;17.73;52.83
25944;BME280;13742;49.306;8.636;2022-07-17T02:23:09;101292.98;;;17.74;52.21
25944;BME280;13742;49.306;8.636;2022-07-17T02:24:09;101290.70;;;17.75;53.22
25944;BME280;13742;49.306;8.636;2022-07-17T02:25:09;101290.49;;;17.71;53.27
25944;BME280;13742;49.306;8.636;2022-07-17T02:26:09;101290.95;;;17.72;52.74
25944;BME280;13742;49.306;8.636;2022-07-17T02:27:09;101287.13;;;17.74;52.69
25944;BME280;13742;49.306;8.636;2022-07-17T02:28:09;101284.42;;;17.33;54.77
25944;BME280;13742;49.306;8.636;2022-07-17T02:29:09;101290.00;;;17.45;54.20
25944;BME280;13742;49.306;8.636;2022-07-17T02:30:10;101284.73;;;17.50;53.99
25944;BME280;13742;49.306;8.636;2022-07-17T02:31:09;101284.48;;;17.44;54.51
25944;BME280;13742;49.306;8.636;2022-07-17T02:32:09;101289.80;;;17.41;54.33
25944;BME280;13742;49.306;8.636;2022-07-17T02:33:09;101290.02;;;17.46;54.31
25944;BME280;13742;49.306;8.636;2022-07-17T02:34:09;101290.60;;;17.48;53.78
25944;BME280;13742;49.306;8.636;2022-07-17T02:35:09;101293.34;;;17.51;53.73
25944;BME280;13742;49.306;8.636;2022-07-17T02:36:09;101290.66;;;17.50;53.55
25944;BME280;13742;49.306;8.636;2022-07-17T02:37:10;101289.80;;;17.46;53.94
25944;BME280;13742;49.306;8.636;2022-07-17T02:38:09;101292.70;;;17.48;53.23
25944;BME280;13742;49.306;8.636;2022-07-17T02:39:09;101290.88;;;17.49;53.50
25944;BME280;13742;49.306;8.636;2022-07-17T02:40:09;101288.00;;;17.34;54.19
25944;BME280;13742;49.306;8.636;2022-07-17T02:41:09;101283.36;;;17.33;53.80
25944;BME280;13742;49.306;8.636;2022-07-17T02:42:09;101286.24;;;17.38;53.23
25944;BME280;13742;49.306;8.636;2022-07-17T02:43:09;101291.46;;;17.41;53.17
25944;BME280;13742;49.306;8.636;2022-07-17T02:44:09;101287.53;;;17.43;52.96
25944;BME280;13742;49.306;8.636;2022-07-17T02:45:09;101285.33;;;17.44;53.95
25944;BME280;13742;49.306;8.636;2022-07-17T02:46:09;101287.11;;;17.45;53.75
25944;BME280;13742;49.306;8.636;2022-07-17T02:47:09;101288.31;;;17.43;53.81
25944;BME280;13742;49.306;8.636;2022-07-17T02:48:09;101286.17;;;17.44;52.93
25944;BME280;13742;49.306;8.636;2022-07-17T02:49:09;101292.49;;;17.35;53.83
25944;BME280;13742;49.306;8.636;2022-07-17T02:50:09;101289.89;;;17.36;53.52
25944;BME280;13742;49.306;8.636;2022-07-17T02:51:09;101290.34;;;17.32;53.84
25944;BME280;13742;49.306;8.636;2022-07-17T02:52:09;101291.70;;;17.33;52.96
25944;BME280;13742;49.306;8.636;2022-07-17T02:53:09;101292.41;;;17.35;52.93
25944;BME280;13742;49.306;8.636;2022-07-17T02:54:09;101294.98;;;17.30;53.90
25944;BME280;13742;49.306;8.636;2022-07-17T02:55:09;101288.14;;;17.30;53.48
25944;BME280;13742;49.306;8.636;2022-07-17T02:56:09;101292.00;;;17.34;53.34
25944;BME280;13742;49.306;8.636;2022-07-17T02:57:09;101290.77;;;17.34;53.96
25944;BME280;13742;49.306;8.636;2022-07-17T02:58:09;101292.63;;;17.25;54.16
25944;BME280;13742;49.306;8.636;2022-07-17T02:59:09;101293.81;;;17.25;53.96
25944;BME280;13742;49.306;8.636;2022-07-17T03:00:10;101289.10;;;17.09;54.42
25944;BME280;13742;49.306;8.636;2022-07-17T03:01:09;101293.36;;;17.11;53.81
25944;BME280;13742;49.306;8.636;2022-07-17T03:02:09;101295.95;;;17.14;53.67
25944;BME280;13742;49.306;8.636;2022-07-17T03:03:09;101294.53;;;17.16;54.60
25944;BME280;13742;49.306;8.636;2022-07-17T03:04:09;101299.12;;;16.92;55.51
25944;BME280;13742;49.306;8.636;2022-07-17T03:05:09;101301.77;;;16.71;56.03
25944;BME280;13742;49.306;8.636;2022-07-17T03:06:09;101296.39;;;16.79;55.85
25944;BME280;13742;49.306;8.636;2022-07-17T03:07:09;101298.53;;;16.77;55.69
25944;BME280;13742;49.306;8.636;2022-07-17T03:08:09;101296.63;;;16.76;55.58
25944;BME280;13742;49.306;8.636;2022-07-17T03:09:09;101297.25;;;16.87;55.61
25944;BME280;13742;49.306;8.636;2022-07-17T03:10:09;101295.56;;;16.75;56.08
25944;BME280;13742;49.306;8.636;2022-07-17T03:11:09;101299.38;;;16.79;55.68
25944;BME280;13742;49.306;8.636;2022-07-17T03:12:09;101297.95;;;16.85;55.29
25944;BME280;13742;49.306;8.636;2022-07-17T03:13:09;101294.84;;;16.84;55.08
25944;BME280;13742;49.306;8.636;2022-07-17T03:14:09;101291.09;;;16.87;54.50
25944;BME280;13742;49.306;8.636;2022-07-17T03:15:09;101292.67;;;16.92;54.92
25944;BME280;13742;49.306;8.636;2022-07-17T03:16:09;101292.88;;;16.96;55.16
25944;BME280;13742;49.306;8.636;2022-07-17T03:17:09;101294.95;;;16.97;54.84
25944;BME280;13742;49.306;8.636;2022-07-17T03:18:09;101291.27;;;16.99;54.43
25944;BME280;13742;49.306;8.636;2022-07-17T03:19:09;101289.02;;;16.98;55.02
25944;BME280;13742;49.306;8.636;2022-07-17T03:20:09;101290.91;;;16.82;55.93
25944;BME280;13742;49.306;8.636;2022-07-17T03:21:09;101291.72;;;16.92;55.24
25944;BME280;13742;49.306;8.636;2022-07-17T03:22:09;101290.88;;;16.96;54.82
25944;BME280;13742;49.306;8.636;2022-07-17T03:23:09;101289.16;;;16.99;55.24
25944;BME280;13742;49.306;8.636;2022-07-17T03:24:09;101290.52;;;17.02;54.76
25944;BME280;13742;49.306;8.636;2022-07-17T03:25:09;101290.20;;;17.00;54.78
25944;BME280;13742;49.306;8.636;2022-07-17T03:26:09;101289.87;;;16.95;54.95
25944;BME280;13742;49.306;8.636;2022-07-17T03:27:09;101296.38;;;16.98;54.26
25944;BME280;13742;49.306;8.636;2022-07-17T03:28:09;101293.55;;;17.01;54.11
25944;BME280;13742;49.306;8.636;2022-07-17T03:29:09;101297.32;;;17.04;53.93
25944;BME280;13742;49.306;8.636;2022-07-17T03:30:09;101296.84;;;17.05;53.91
25944;BME280;13742;49.306;8.636;2022-07-17T03:31:09;101292.36;;;17.06;54.34
25944;BME280;13742;49.306;8.636;2022-07-17T03:32:10;101297.34;;;17.00;55.06
25944;BME280;13742;49.306;8.636;2022-07-17T03:33:09;101293.39;;;17.01;54.89
25944;BME280;13742;49.306;8.636;2022-07-17T03:34:09;101293.05;;;17.00;54.54
25944;BME280;13742;49.306;8.636;2022-07-17T03:35:09;101292.47;;;17.02;54.42
25944;BME280;13742;49.306;8.636;2022-07-17T03:36:09;101293.11;;;17.04;53.98
25944;BME280;13742;49.306;8.636;2022-07-17T03:37:09;101292.19;;;17.06;54.06
25944;BME280;13742;49.306;8.636;2022-07-17T03:38:09;101292.42;;;17.07;53.75
25944;BME280;13742;49.306;8.636;2022-07-17T03:39:09;101298.44;;;17.08;53.82
25944;BME280;13742;49.306;8.636;2022-07-17T03:40:09;101298.51;;;17.09;54.32
25944;BME280;13742;49.306;8.636;2022-07-17T03:41:09;101298.16;;;17.08;54.77
25944;BME280;13742;49.306;8.636;2022-07-17T03:42:09;101297.75;;;17.03;54.73
25944;BME280;13742;49.306;8.636;2022-07-17T03:43:09;101298.59;;;16.99;54.40
25944;BME280;13742;49.306;8.636;2022-07-17T03:44:09;101299.80;;;17.02;54.75
25944;BME280;13742;49.306;8.636;2022-07-17T03:45:09;101300.36;;;17.03;55.14
25944;BME280;13742;49.306;8.636;2022-07-17T03:46:09;101299.55;;;17.03;54.75
25944;BME280;13742;49.306;8.636;2022-07-17T03:47:09;101302.54;;;17.02;54.35
25944;BME280;13742;49.306;8.636;2022-07-17T03:48:09;101302.41;;;17.01;54.41
25944;BME280;13742;49.306;8.636;2022-07-17T03:49:10;101300.22;;;16.96;54.81
25944;BME280;13742;49.306;8.636;2022-07-17T03:50:09;101299.30;;;16.97;54.90
25944;BME280;13742;49.306;8.636;2022-07-17T03:51:09;101300.55;;;16.98;54.54
25944;BME280;13742;49.306;8.636;2022-07-17T03:52:09;101301.78;;;16.99;54.71
25944;BME280;13742;49.306;8.636;2022-07-17T03:53:09;101296.47;;;16.94;55.10
25944;BME280;13742;49.306;8.636;2022-07-17T03:54:09;101301.67;;;16.92;54.76
25944;BME280;13742;49.306;8.636;2022-07-17T03:55:09;101303.75;;;16.93;55.09
25944;BME280;13742;49.306;8.636;2022-07-17T03:56:09;101304.71;;;16.86;55.85
25944;BME280;13742;49.306;8.636;2022-07-17T03:57:09;101305.92;;;16.66;56.44
25944;BME280;13742;49.306;8.636;2022-07-17T03:58:09;101299.92;;;16.70;56.27
25944;BME280;13742;49.306;8.636;2022-07-17T03:59:09;101303.45;;;16.53;56.86
25944;BME280;13742;49.306;8.636;2022-07-17T04:00:09;101300.47;;;16.51;57.15
25944;BME280;13742;49.306;8.636;2022-07-17T04:01:09;101302.38;;;16.58;56.88
25944;BME280;13742;49.306;8.636;2022-07-17T04:02:09;101301.98;;;16.58;56.93
25944;BME280;13742;49.306;8.636;2022-07-17T04:03:09;101300.02;;;16.61;56.92
25944;BME280;13742;49.306;8.636;2022-07-17T04:04:09;101298.37;;;16.58;56.83
25944;BME280;13742;49.306;8.636;2022-07-17T04:05:09;101304.89;;;16.57;56.79
25944;BME280;13742;49.306;8.636;2022-07-17T04:06:09;101304.78;;;16.52;57.37
25944;BME280;13742;49.306;8.636;2022-07-17T04:07:24;101311.34;;;16.06;58.80
25944;BME280;13742;49.306;8.636;2022-07-17T04:08:09;101301.02;;;16.20;58.13
25944;BME280;13742;49.306;8.636;2022-07-17T04:09:09;101302.68;;;16.20;57.93
25944;BME280;13742;49.306;8.636;2022-07-17T04:10:10;101305.67;;;16.29;57.14
25944;BME280;13742;49.306;8.636;2022-07-17T04:11:09;101305.37;;;16.36;56.97
25944;BME280;13742;49.306;8.636;2022-07-17T04:12:09;101306.36;;;16.42;56.82
25944;BME280;13742;49.306;8.636;2022-07-17T04:13:09;101308.30;;;16.47;56.67
25944;BME280;13742;49.306;8.636;2022-07-17T04:14:09;101307.34;;;16.49;56.72
25944;BME280;13742;49.306;8.636;2022-07-17T04:15:09;101311.66;;;16.51;56.71
25944;BME280;13742;49.306;8.636;2022-07-17T04:16:09;101313.61;;;16.51;57.00
25944;BME280;13742;49.306;8.636;2022-07-17T04:17:09;101314.83;;;16.47;57.33
25944;BME280;13742;49.306;8.636;2022-07-17T04:18:09;101313.82;;;16.44;57.60
25944;BME280;13742;49.306;8.636;2022-07-17T04:19:09;101319.44;;;16.43;57.65
25944;BME280;13742;49.306;8.636;2022-07-17T04:20:09;101318.19;;;16.45;57.57
25944;BME280;13742;49.306;8.636;2022-07-17T04:21:09;101318.77;;;16.48;57.09
25944;BME280;13742;49.306;8.636;2022-07-17T04:22:09;101321.36;;;16.49;57.31
25944;BME280;13742;49.306;8.636;2022-07-17T04:23:09;101318.32;;;16.50;57.60
25944;BME280;13742;49.306;8.636;2022-07-17T04:24:09;101320.98;;;16.51;56.86
25944;BME280;13742;49.306;8.636;2022-07-17T04:25:09;101322.25;;;16.45;58.01
25944;BME280;13742;49.306;8.636;2022-07-17T04:26:09;101321.18;;;16.42;58.05
25944;BME280;13742;49.306;8.636;2022-07-17T04:27:09;101324.94;;;16.39;57.94
25944;BME280;13742;49.306;8.636;2022-07-17T04:28:09;101324.30;;;16.41;57.46
25944;BME280;13742;49.306;8.636;2022-07-17T04:29:09;101320.00;;;16.40;57.75
25944;BME280;13742;49.306;8.636;2022-07-17T04:30:09;101323.45;;;16.20;59.09
25944;BME280;13742;49.306;8.636;2022-07-17T04:31:09;101328.48;;;16.18;59.40
25944;BME280;13742;49.306;8.636;2022-07-17T04:32:09;101326.63;;;16.30;58.35
25944;BME280;13742;49.306;8.636;2022-07-17T04:33:09;101325.13;;;16.26;59.33
25944;BME280;13742;49.306;8.636;2022-07-17T04:34:09;101323.48;;;16.31;58.54
25944;BME280;13742;49.306;8.636;2022-07-17T04:35:09;101324.70;;;16.28;58.67
25944;BME280;13742;49.306;8.636;2022-07-17T04:36:09;101327.03;;;16.27;59.03
25944;BME280;13742;49.306;8.636;2022-07-17T04:37:09;101324.47;;;16.30;58.22
25944;BME280;13742;49.306;8.636;2022-07-17T04:38:09;101323.53;;;16.32;58.03
25944;BME280;13742;49.306;8.636;2022-07-17T04:39:09;101324.64;;;16.32;58.57
25944;BME280;13742;49.306;8.636;2022-07-17T04:40:09;101324.03;;;16.31;58.97
25944;BME280;13742;49.306;8.636;2022-07-17T04:41:09;101326.13;;;16.30;59.31
25944;BME280;13742;49.306;8.636;2022-07-17T04:42:09;101330.24;;;16.30;59.64
25944;BME280;13742;49.306;8.636;2022-07-17T04:43:09;101326.69;;;16.35;58.61
25944;BME280;13742;49.306;8.636;2022-07-17T04:44:09;101330.80;;;16.35;59.57
25944;BME280;13742;49.306;8.636;2022-07-17T04:45:09;101332.80;;;16.33;59.95
25944;BME280;13742;49.306;8.636;2022-07-17T04:46:09;101334.13;;;16.38;59.21
25944;BME280;13742;49.306;8.636;2022-07-17T04:47:09;101330.20;;;16.38;59.73
25944;BME280;13742;49.306;8.636;2022-07-17T04:48:09;101331.20;;;16.36;59.97
25944;BME280;13742;49.306;8.636;2022-07-17T04:49:09;101330.97;;;16.39;59.69
25944;BME280;13742;49.306;8.636;2022-07-17T04:50:09;101328.59;;;16.43;59.60
25944;BME280;13742;49.306;8.636;2022-07-17T04:51:09;101330.36;;;16.45;59.35
25944;BME280;13742;49.306;8.636;2022-07-17T04:52:09;101334.18;;;16.44;59.78
25944;BME280;13742;49.306;8.636;2022-07-17T04:53:09;101331.43;;;16.46;58.93
25944;BME280;13742;49.306;8.636;2022-07-17T04:54:09;101328.28;;;16.44;59.71
25944;BME280;13742;49.306;8.636;2022-07-17T04:55:09;101327.12;;;16.44;59.66
25944;BME280;13742;49.306;8.636;2022-07-17T04:56:09;101324.95;;;16.48;59.27
25944;BME280;13742;49.306;8.636;2022-07-17T04:57:09;101322.23;;;16.51;58.96
25944;BME280;13742;49.306;8.636;2022-07-17T04:58:09;101327.16;;;16.47;59.41
25944;BME280;13742;49.306;8.636;2022-07-17T04:59:09;101327.75;;;16.53;58.74
25944;BME280;13742;49.306;8.636;2022-07-17T05:00:09;101329.92;;;16.57;58.88
25944;BME280;13742;49.306;8.636;2022-07-17T05:01:09;101326.53;;;16.61;58.21
25944;BME280;13742;49.306;8.636;2022-07-17T05:02:09;101329.69;;;16.60;59.09
25944;BME280;13742;49.306;8.636;2022-07-17T05:03:09;101327.70;;;16.61;58.84
25944;BME280;13742;49.306;8.636;2022-07-17T05:04:09;101327.58;;;16.60;59.49
25944;BME280;13742;49.306;8.636;2022-07-17T05:05:09;101327.62;;;16.63;59.20
25944;BME280;13742;49.306;8.636;2022-07-17T05:06:09;101331.05;;;16.69;59.07
25944;BME280;13742;49.306;8.636;2022-07-17T05:07:09;101327.81;;;16.69;58.69
25944;BME280;13742;49.306;8.636;2022-07-17T05:08:09;101331.28;;;16.70;58.71
25944;BME280;13742;49.306;8.636;2022-07-17T05:09:09;101332.48;;;16.73;58.65
25944;BME280;13742;49.306;8.636;2022-07-17T05:10:09;101332.94;;;16.77;58.01
25944;BME280;13742;49.306;8.636;2022-07-17T05:11:09;101335.61;;;16.78;59.21
25944;BME280;13742;49.306;8.636;2022-07-17T05:12:09;101336.31;;;16.80;59.07
25944;BME280;13742;49.306;8.636;2022-07-17T05:13:09;101339.70;;;16.79;59.16